HBJJJ LFPB-ESSA
Flight info
| Callsign | HBJJJ |
|---|---|
| Flight time | 2h 18m |
| Altitude | 39000 |
| Route | NURMO DCT CMB DCT VEKIN DCT ADUTO DCT VICOT DCT GOTEX DCT DETSO N873 ARS T317 ELTOK |
| Aircraft | A319/M-SDE3FGHIRWY/LB1 |
Departure
| Time | 2026-04-25 11:13 |
|---|---|
| Airport | Paris-Le Bourget International Airport (LFPB) |
Arrival
| Time | 2026-04-25 13:32 |
|---|---|
| Airport | Stockholm-Arlanda Airport (ESSA) |
| Time | Latitude | Longitude | Altitude | Speed | Heading |
|---|---|---|---|---|---|
| 2026-04-25 10:48 | 48.95429 | 2.44031 | 155 ft | 0 kts | 116° |
| 2026-04-25 11:03 | 48.95430 | 2.44028 | 155 ft | 1 kts | 117° |
| 2026-04-25 11:03 | 48.95439 | 2.44005 | 155 ft | 3 kts | 136° |
| 2026-04-25 11:03 | 48.95455 | 2.43988 | 155 ft | 3 kts | 159° |
| 2026-04-25 11:03 | 48.95471 | 2.43977 | 155 ft | 3 kts | 129° |
| 2026-04-25 11:04 | 48.95479 | 2.43959 | 155 ft | 3 kts | 109° |
| 2026-04-25 11:04 | 48.95483 | 2.43931 | 155 ft | 3 kts | 78° |
| 2026-04-25 11:04 | 48.95476 | 2.43904 | 155 ft | 3 kts | 47° |
| 2026-04-25 11:04 | 48.95460 | 2.43885 | 155 ft | 3 kts | 30° |
| 2026-04-25 11:05 | 48.95449 | 2.43875 | 155 ft | 0 kts | 27° |
| 2026-04-25 11:08 | 48.95452 | 2.43878 | 155 ft | 2 kts | 27° |
| 2026-04-25 11:08 | 48.95490 | 2.43908 | 155 ft | 8 kts | 27° |
| 2026-04-25 11:08 | 48.95546 | 2.43951 | 155 ft | 10 kts | 26° |
| 2026-04-25 11:09 | 48.95614 | 2.44000 | 156 ft | 12 kts | 25° |
| 2026-04-25 11:09 | 48.95689 | 2.44007 | 155 ft | 13 kts | 322° |
| 2026-04-25 11:09 | 48.95732 | 2.43874 | 155 ft | 14 kts | 294° |
| 2026-04-25 11:09 | 48.95774 | 2.43733 | 157 ft | 15 kts | 295° |
| 2026-04-25 11:10 | 48.95820 | 2.43588 | 159 ft | 14 kts | 295° |
| 2026-04-25 11:10 | 48.95846 | 2.43504 | 163 ft | 12 kts | 295° |
| 2026-04-25 11:10 | 48.95898 | 2.43327 | 161 ft | 16 kts | 294° |
| 2026-04-25 11:10 | 48.95950 | 2.43160 | 157 ft | 19 kts | 297° |
| 2026-04-25 11:11 | 48.96030 | 2.42991 | 153 ft | 20 kts | 309° |
| 2026-04-25 11:11 | 48.96116 | 2.42827 | 154 ft | 18 kts | 309° |
| 2026-04-25 11:11 | 48.96183 | 2.42697 | 158 ft | 15 kts | 308° |
| 2026-04-25 11:11 | 48.96243 | 2.42584 | 162 ft | 13 kts | 308° |
| 2026-04-25 11:12 | 48.96311 | 2.42491 | 162 ft | 12 kts | 344° |
| 2026-04-25 11:12 | 48.96388 | 2.42486 | 163 ft | 9 kts | 32° |
| 2026-04-25 11:12 | 48.96397 | 2.42537 | 162 ft | 3 kts | 86° |
| 2026-04-25 11:12 | 48.96406 | 2.42729 | 166 ft | 53 kts | 85° |
| 2026-04-25 11:13 | 48.96462 | 2.43722 | 171 ft | 133 kts | 85° |
| 2026-04-25 11:13 | 48.96537 | 2.45217 | 759 ft | 143 kts | 84° |
| 2026-04-25 11:13 | 48.96609 | 2.46748 | 1562 ft | 146 kts | 83° |
| 2026-04-25 11:13 | 48.96686 | 2.48318 | 2367 ft | 147 kts | 84° |
| 2026-04-25 11:14 | 48.96778 | 2.49941 | 3044 ft | 161 kts | 84° |
| 2026-04-25 11:14 | 48.96884 | 2.51715 | 3631 ft | 179 kts | 85° |
| 2026-04-25 11:14 | 48.96870 | 2.53732 | 4180 ft | 203 kts | 92° |
| 2026-04-25 11:14 | 48.96747 | 2.55930 | 5026 ft | 212 kts | 96° |
| 2026-04-25 11:15 | 48.96578 | 2.58184 | 5995 ft | 217 kts | 96° |
| 2026-04-25 11:15 | 48.96400 | 2.60485 | 6939 ft | 221 kts | 96° |
| 2026-04-25 11:15 | 48.96217 | 2.62854 | 7714 ft | 235 kts | 96° |
| 2026-04-25 11:15 | 48.96025 | 2.65466 | 8317 ft | 261 kts | 95° |
| 2026-04-25 11:16 | 48.95600 | 2.71375 | 9927 ft | 293 kts | 95° |
| 2026-04-25 11:16 | 48.95377 | 2.74524 | 10632 ft | 312 kts | 95° |
| 2026-04-25 11:16 | 48.95139 | 2.77938 | 11084 ft | 336 kts | 95° |
| 2026-04-25 11:17 | 48.94881 | 2.81557 | 11795 ft | 349 kts | 95° |
| 2026-04-25 11:17 | 48.94611 | 2.85249 | 12712 ft | 354 kts | 95° |
| 2026-04-25 11:17 | 48.94330 | 2.89005 | 13629 ft | 360 kts | 95° |
| 2026-04-25 11:17 | 48.94225 | 2.92815 | 14442 ft | 364 kts | 83° |
| 2026-04-25 11:18 | 48.94859 | 2.96543 | 15228 ft | 367 kts | 64° |
| 2026-04-25 11:18 | 48.96277 | 2.99769 | 16010 ft | 369 kts | 44° |
| 2026-04-25 11:18 | 48.98342 | 3.02075 | 16783 ft | 371 kts | 24° |
| 2026-04-25 11:18 | 49.00813 | 3.03172 | 17563 ft | 372 kts | 4° |
| 2026-04-25 11:19 | 49.03384 | 3.02927 | 18346 ft | 373 kts | 344° |
| 2026-04-25 11:19 | 49.05762 | 3.01387 | 19071 ft | 374 kts | 327° |
| 2026-04-25 11:19 | 49.07972 | 2.99285 | 19821 ft | 376 kts | 326° |
| 2026-04-25 11:19 | 49.10194 | 2.97152 | 20563 ft | 379 kts | 326° |
| 2026-04-25 11:20 | 49.12476 | 2.95089 | 21274 ft | 384 kts | 332° |
| 2026-04-25 11:20 | 49.15010 | 2.93569 | 21996 ft | 390 kts | 342° |
| 2026-04-25 11:20 | 49.17702 | 2.92855 | 22660 ft | 398 kts | 355° |
| 2026-04-25 11:20 | 49.20471 | 2.93315 | 23306 ft | 407 kts | 12° |
| 2026-04-25 11:21 | 49.23207 | 2.94536 | 23927 ft | 412 kts | 14° |
| 2026-04-25 11:21 | 49.25959 | 2.95827 | 24459 ft | 415 kts | 14° |
| 2026-04-25 11:21 | 49.28725 | 2.97156 | 25000 ft | 418 kts | 14° |
| 2026-04-25 11:21 | 49.31510 | 2.98507 | 25539 ft | 421 kts | 14° |
| 2026-04-25 11:22 | 49.34308 | 2.99865 | 26047 ft | 424 kts | 14° |
| 2026-04-25 11:22 | 49.36175 | 3.00767 | 26381 ft | 426 kts | 14° |
| 2026-04-25 11:22 | 49.39973 | 3.02595 | 27067 ft | 430 kts | 14° |
| 2026-04-25 11:22 | 49.42842 | 3.03975 | 27567 ft | 433 kts | 14° |
| 2026-04-25 11:23 | 49.45729 | 3.05366 | 28057 ft | 436 kts | 14° |
| 2026-04-25 11:23 | 49.48632 | 3.06762 | 28562 ft | 440 kts | 14° |
| 2026-04-25 11:23 | 49.51562 | 3.08172 | 29032 ft | 443 kts | 14° |
| 2026-04-25 11:23 | 49.54513 | 3.09596 | 29500 ft | 446 kts | 14° |
| 2026-04-25 11:24 | 49.57482 | 3.11035 | 29958 ft | 449 kts | 14° |
| 2026-04-25 11:24 | 49.60474 | 3.12485 | 30371 ft | 452 kts | 14° |
| 2026-04-25 11:24 | 49.63484 | 3.13942 | 30737 ft | 455 kts | 14° |
| 2026-04-25 11:24 | 49.66513 | 3.15408 | 31110 ft | 457 kts | 14° |
| 2026-04-25 11:25 | 49.69548 | 3.16877 | 31526 ft | 458 kts | 14° |
| 2026-04-25 11:25 | 49.72589 | 3.18358 | 32020 ft | 458 kts | 14° |
| 2026-04-25 11:25 | 49.75621 | 3.19840 | 32564 ft | 456 kts | 14° |
| 2026-04-25 11:25 | 49.78643 | 3.21303 | 33086 ft | 455 kts | 14° |
| 2026-04-25 11:26 | 49.81663 | 3.22753 | 33603 ft | 454 kts | 14° |
| 2026-04-25 11:26 | 49.84676 | 3.24193 | 34129 ft | 453 kts | 14° |
| 2026-04-25 11:26 | 49.87683 | 3.25628 | 34592 ft | 452 kts | 14° |
| 2026-04-25 11:26 | 49.90688 | 3.27068 | 35053 ft | 451 kts | 14° |
| 2026-04-25 11:27 | 49.93685 | 3.28513 | 35528 ft | 450 kts | 14° |
| 2026-04-25 11:27 | 49.96667 | 3.29958 | 35986 ft | 449 kts | 14° |
| 2026-04-25 11:27 | 49.99652 | 3.31404 | 36420 ft | 449 kts | 14° |
| 2026-04-25 11:27 | 50.01667 | 3.32380 | 36702 ft | 448 kts | 14° |
| 2026-04-25 11:28 | 50.05643 | 3.34306 | 37246 ft | 447 kts | 14° |
| 2026-04-25 11:28 | 50.08613 | 3.35750 | 37647 ft | 447 kts | 14° |
| 2026-04-25 11:28 | 50.11583 | 3.37198 | 38045 ft | 447 kts | 14° |
| 2026-04-25 11:28 | 50.14541 | 3.38642 | 38449 ft | 446 kts | 14° |
| 2026-04-25 11:29 | 50.17503 | 3.40089 | 38821 ft | 446 kts | 14° |
| 2026-04-25 11:29 | 50.20464 | 3.41533 | 39098 ft | 446 kts | 14° |
| 2026-04-25 11:29 | 50.26400 | 3.44425 | 39202 ft | 447 kts | 14° |
| 2026-04-25 11:30 | 50.32332 | 3.47338 | 39202 ft | 446 kts | 14° |
| 2026-04-25 11:30 | 50.38258 | 3.50257 | 39207 ft | 446 kts | 14° |
| 2026-04-25 11:31 | 50.44185 | 3.53178 | 39204 ft | 447 kts | 14° |
| 2026-04-25 11:31 | 50.50114 | 3.56104 | 39205 ft | 447 kts | 14° |
| 2026-04-25 11:32 | 50.56046 | 3.59009 | 39209 ft | 447 kts | 14° |
| 2026-04-25 11:32 | 50.61985 | 3.61902 | 39208 ft | 447 kts | 14° |
| 2026-04-25 11:33 | 50.67922 | 3.64814 | 39212 ft | 447 kts | 14° |
| 2026-04-25 11:33 | 50.73858 | 3.67746 | 39212 ft | 447 kts | 14° |
| 2026-04-25 11:34 | 50.78827 | 3.70207 | 39212 ft | 447 kts | 14° |
| 2026-04-25 11:34 | 50.84762 | 3.73151 | 39212 ft | 447 kts | 14° |
| 2026-04-25 11:35 | 50.90691 | 3.76091 | 39215 ft | 446 kts | 14° |
| 2026-04-25 11:35 | 50.96611 | 3.79027 | 39214 ft | 445 kts | 14° |
| 2026-04-25 11:36 | 51.02506 | 3.81978 | 39211 ft | 444 kts | 14° |
| 2026-04-25 11:36 | 51.08406 | 3.84936 | 39212 ft | 444 kts | 14° |
| 2026-04-25 11:37 | 51.14302 | 3.87885 | 39209 ft | 444 kts | 14° |
| 2026-04-25 11:37 | 51.20195 | 3.90852 | 39210 ft | 444 kts | 14° |
| 2026-04-25 11:38 | 51.26089 | 3.93829 | 39210 ft | 444 kts | 14° |
| 2026-04-25 11:38 | 51.31973 | 3.96808 | 39210 ft | 443 kts | 14° |
| 2026-04-25 11:39 | 51.37852 | 3.99796 | 39215 ft | 443 kts | 14° |
| 2026-04-25 11:39 | 51.43735 | 4.02793 | 39216 ft | 443 kts | 14° |
| 2026-04-25 11:40 | 51.49469 | 4.06497 | 39215 ft | 449 kts | 27° |
| 2026-04-25 11:40 | 51.54735 | 4.12049 | 39215 ft | 450 kts | 30° |
| 2026-04-25 11:41 | 51.59948 | 4.17597 | 39216 ft | 449 kts | 30° |
| 2026-04-25 11:41 | 51.65161 | 4.23150 | 39214 ft | 449 kts | 30° |
| 2026-04-25 11:42 | 51.70370 | 4.28735 | 39209 ft | 449 kts | 30° |
| 2026-04-25 11:42 | 51.75574 | 4.34328 | 39209 ft | 449 kts | 30° |
| 2026-04-25 11:43 | 51.80768 | 4.39921 | 39221 ft | 449 kts | 30° |
| 2026-04-25 11:43 | 51.85956 | 4.45533 | 39216 ft | 449 kts | 30° |
| 2026-04-25 11:44 | 51.91145 | 4.51162 | 39215 ft | 449 kts | 30° |
| 2026-04-25 11:44 | 51.96333 | 4.56789 | 39231 ft | 449 kts | 30° |
| 2026-04-25 11:45 | 52.01509 | 4.62420 | 39219 ft | 448 kts | 30° |
| 2026-04-25 11:45 | 52.06677 | 4.68086 | 39203 ft | 448 kts | 30° |
| 2026-04-25 11:46 | 52.11842 | 4.73749 | 39212 ft | 448 kts | 30° |
| 2026-04-25 11:46 | 52.17005 | 4.79428 | 39218 ft | 448 kts | 30° |
| 2026-04-25 11:47 | 52.22162 | 4.85120 | 39218 ft | 447 kts | 30° |
| 2026-04-25 11:47 | 52.27310 | 4.90821 | 39220 ft | 447 kts | 30° |
| 2026-04-25 11:48 | 52.32456 | 4.96522 | 39218 ft | 446 kts | 30° |
| 2026-04-25 11:48 | 52.37625 | 5.02266 | 39216 ft | 446 kts | 30° |
| 2026-04-25 11:49 | 52.42751 | 5.07979 | 39218 ft | 446 kts | 30° |
| 2026-04-25 11:49 | 52.47865 | 5.13696 | 39211 ft | 445 kts | 30° |
| 2026-04-25 11:50 | 52.52972 | 5.19431 | 39211 ft | 445 kts | 30° |
| 2026-04-25 11:50 | 52.58077 | 5.25175 | 39213 ft | 445 kts | 30° |
| 2026-04-25 11:51 | 52.63184 | 5.30935 | 39214 ft | 445 kts | 30° |
| 2026-04-25 11:51 | 52.68282 | 5.36702 | 39212 ft | 444 kts | 30° |
| 2026-04-25 11:52 | 52.73363 | 5.42471 | 39211 ft | 443 kts | 30° |
| 2026-04-25 11:52 | 52.78443 | 5.48242 | 39202 ft | 443 kts | 30° |
| 2026-04-25 11:53 | 52.83517 | 5.54027 | 39195 ft | 443 kts | 30° |
| 2026-04-25 11:53 | 52.88588 | 5.59831 | 39201 ft | 443 kts | 29° |
| 2026-04-25 11:54 | 52.93642 | 5.65643 | 39193 ft | 442 kts | 29° |
| 2026-04-25 11:55 | 53.01253 | 5.74412 | 39191 ft | 442 kts | 29° |
| 2026-04-25 11:55 | 53.06301 | 5.80240 | 39190 ft | 442 kts | 29° |
| 2026-04-25 11:56 | 53.11348 | 5.86089 | 39215 ft | 442 kts | 29° |
| 2026-04-25 11:56 | 53.16370 | 5.91944 | 39192 ft | 440 kts | 29° |
| 2026-04-25 11:57 | 53.21380 | 5.97799 | 39191 ft | 440 kts | 29° |
| 2026-04-25 11:57 | 53.26389 | 6.03663 | 39189 ft | 440 kts | 29° |
| 2026-04-25 11:58 | 53.31397 | 6.09538 | 39188 ft | 440 kts | 29° |
| 2026-04-25 11:58 | 53.36403 | 6.15411 | 39185 ft | 440 kts | 29° |
| 2026-04-25 11:59 | 53.41404 | 6.21313 | 39180 ft | 439 kts | 29° |
| 2026-04-25 11:59 | 53.46393 | 6.27217 | 39179 ft | 439 kts | 29° |
| 2026-04-25 12:00 | 53.53871 | 6.36083 | 39182 ft | 439 kts | 29° |
| 2026-04-25 12:01 | 53.61327 | 6.44998 | 39177 ft | 437 kts | 29° |
| 2026-04-25 12:01 | 53.66281 | 6.50937 | 39177 ft | 437 kts | 29° |
| 2026-04-25 12:02 | 53.73713 | 6.59848 | 39177 ft | 437 kts | 29° |
| 2026-04-25 12:02 | 53.78692 | 6.65862 | 39171 ft | 437 kts | 29° |
| 2026-04-25 12:03 | 53.83631 | 6.71853 | 39166 ft | 436 kts | 29° |
| 2026-04-25 12:03 | 53.88564 | 6.77839 | 39165 ft | 436 kts | 29° |
| 2026-04-25 12:04 | 53.93494 | 6.83827 | 39185 ft | 436 kts | 29° |
| 2026-04-25 12:04 | 53.98421 | 6.89839 | 39161 ft | 436 kts | 29° |
| 2026-04-25 12:05 | 54.03336 | 6.95881 | 39161 ft | 436 kts | 29° |
| 2026-04-25 12:05 | 54.08257 | 7.01923 | 39147 ft | 435 kts | 29° |
| 2026-04-25 12:06 | 54.13172 | 7.07959 | 39154 ft | 436 kts | 29° |
| 2026-04-25 12:06 | 54.17251 | 7.13000 | 39152 ft | 436 kts | 29° |
| 2026-04-25 12:07 | 54.22156 | 7.19080 | 39147 ft | 436 kts | 29° |
| 2026-04-25 12:07 | 54.27060 | 7.25171 | 39138 ft | 436 kts | 29° |
| 2026-04-25 12:08 | 54.31997 | 7.31317 | 39135 ft | 436 kts | 29° |
| 2026-04-25 12:08 | 54.36901 | 7.37448 | 39131 ft | 437 kts | 29° |
| 2026-04-25 12:09 | 54.41812 | 7.43595 | 39132 ft | 437 kts | 29° |
| 2026-04-25 12:09 | 54.46712 | 7.49758 | 39121 ft | 437 kts | 29° |
| 2026-04-25 12:10 | 54.51612 | 7.55943 | 39118 ft | 438 kts | 29° |
| 2026-04-25 12:10 | 54.56522 | 7.62152 | 39110 ft | 437 kts | 29° |
| 2026-04-25 12:11 | 54.61419 | 7.68370 | 39101 ft | 437 kts | 29° |
| 2026-04-25 12:11 | 54.66320 | 7.74602 | 39103 ft | 438 kts | 29° |
| 2026-04-25 12:12 | 54.71221 | 7.80858 | 39092 ft | 438 kts | 29° |
| 2026-04-25 12:12 | 54.76110 | 7.87126 | 39125 ft | 438 kts | 28° |
| 2026-04-25 12:13 | 54.81004 | 7.93421 | 39083 ft | 439 kts | 28° |
| 2026-04-25 12:13 | 54.85902 | 7.99741 | 39082 ft | 439 kts | 28° |
| 2026-04-25 12:14 | 54.90801 | 8.06062 | 39080 ft | 439 kts | 28° |
| 2026-04-25 12:14 | 54.95695 | 8.12395 | 39081 ft | 439 kts | 28° |
| 2026-04-25 12:15 | 55.00590 | 8.18759 | 39098 ft | 440 kts | 28° |
| 2026-04-25 12:15 | 55.05505 | 8.25173 | 39079 ft | 442 kts | 28° |
| 2026-04-25 12:16 | 55.10463 | 8.31667 | 39069 ft | 443 kts | 28° |
| 2026-04-25 12:16 | 55.15392 | 8.38150 | 39057 ft | 443 kts | 29° |
| 2026-04-25 12:17 | 55.20318 | 8.44639 | 39031 ft | 443 kts | 28° |
| 2026-04-25 12:17 | 55.25216 | 8.51104 | 39033 ft | 444 kts | 28° |
| 2026-04-25 12:18 | 55.30153 | 8.57642 | 39027 ft | 445 kts | 28° |
| 2026-04-25 12:18 | 55.35104 | 8.64224 | 39026 ft | 446 kts | 29° |
| 2026-04-25 12:19 | 55.42506 | 8.74121 | 39024 ft | 446 kts | 28° |
| 2026-04-25 12:20 | 55.47448 | 8.80728 | 39062 ft | 446 kts | 28° |
| 2026-04-25 12:20 | 55.52398 | 8.87384 | 39015 ft | 448 kts | 28° |
| 2026-04-25 12:21 | 55.57344 | 8.94080 | 38982 ft | 450 kts | 31° |
| 2026-04-25 12:21 | 55.59560 | 8.98106 | 38984 ft | 465 kts | 44° |
| 2026-04-25 12:21 | 55.61511 | 9.02689 | 38977 ft | 467 kts | 45° |
| 2026-04-25 12:22 | 55.65361 | 9.11983 | 38975 ft | 468 kts | 46° |
| 2026-04-25 12:22 | 55.69178 | 9.21335 | 38979 ft | 468 kts | 46° |
| 2026-04-25 12:23 | 55.73024 | 9.30670 | 38970 ft | 468 kts | 46° |
| 2026-04-25 12:23 | 55.76865 | 9.40000 | 38944 ft | 468 kts | 46° |
| 2026-04-25 12:24 | 55.80710 | 9.49440 | 38934 ft | 469 kts | 46° |
| 2026-04-25 12:24 | 55.84515 | 9.58856 | 38932 ft | 468 kts | 46° |
| 2026-04-25 12:25 | 55.88330 | 9.68265 | 38926 ft | 469 kts | 46° |
| 2026-04-25 12:25 | 55.92149 | 9.77699 | 38944 ft | 470 kts | 46° |
| 2026-04-25 12:26 | 55.95963 | 9.87171 | 38910 ft | 470 kts | 46° |
| 2026-04-25 12:26 | 55.99773 | 9.96661 | 38905 ft | 470 kts | 46° |
| 2026-04-25 12:27 | 56.03568 | 10.06188 | 38902 ft | 470 kts | 46° |
| 2026-04-25 12:27 | 56.07358 | 10.15732 | 38891 ft | 471 kts | 46° |
| 2026-04-25 12:28 | 56.11144 | 10.25299 | 38882 ft | 470 kts | 46° |
| 2026-04-25 12:28 | 56.14924 | 10.34889 | 38905 ft | 471 kts | 47° |
| 2026-04-25 12:29 | 56.18674 | 10.44471 | 38874 ft | 469 kts | 47° |
| 2026-04-25 12:29 | 56.22425 | 10.54052 | 38868 ft | 468 kts | 47° |
| 2026-04-25 12:30 | 56.26173 | 10.63630 | 38864 ft | 468 kts | 47° |
| 2026-04-25 12:30 | 56.29909 | 10.73231 | 38865 ft | 468 kts | 47° |
| 2026-04-25 12:31 | 56.33620 | 10.82871 | 38865 ft | 469 kts | 47° |
| 2026-04-25 12:31 | 56.37335 | 10.92537 | 38878 ft | 468 kts | 47° |
| 2026-04-25 12:32 | 56.41022 | 11.02159 | 38844 ft | 465 kts | 47° |
| 2026-04-25 12:32 | 56.44705 | 11.11772 | 38836 ft | 465 kts | 47° |
| 2026-04-25 12:33 | 56.48400 | 11.21457 | 38823 ft | 465 kts | 47° |
| 2026-04-25 12:33 | 56.52059 | 11.31105 | 38820 ft | 465 kts | 47° |
| 2026-04-25 12:34 | 56.55709 | 11.40790 | 38810 ft | 465 kts | 48° |
| 2026-04-25 12:34 | 56.59352 | 11.50490 | 38831 ft | 465 kts | 48° |
| 2026-04-25 12:35 | 56.62992 | 11.60200 | 38803 ft | 465 kts | 48° |
| 2026-04-25 12:35 | 56.66617 | 11.69929 | 38816 ft | 465 kts | 49° |
| 2026-04-25 12:36 | 56.70243 | 11.79705 | 38796 ft | 467 kts | 49° |
| 2026-04-25 12:36 | 56.73877 | 11.89514 | 38783 ft | 467 kts | 49° |
| 2026-04-25 12:37 | 56.77501 | 11.99322 | 38779 ft | 467 kts | 49° |
| 2026-04-25 12:37 | 56.81122 | 12.09177 | 38783 ft | 468 kts | 50° |
| 2026-04-25 12:38 | 56.84730 | 12.19071 | 38769 ft | 468 kts | 50° |
| 2026-04-25 12:38 | 56.88336 | 12.28988 | 38770 ft | 468 kts | 50° |
| 2026-04-25 12:39 | 56.91934 | 12.38923 | 38761 ft | 468 kts | 50° |
| 2026-04-25 12:39 | 56.95531 | 12.48890 | 38756 ft | 470 kts | 50° |
| 2026-04-25 12:40 | 56.98551 | 12.57266 | 38739 ft | 470 kts | 50° |
| 2026-04-25 12:40 | 57.02151 | 12.67286 | 38757 ft | 470 kts | 51° |
| 2026-04-25 12:41 | 57.05721 | 12.77304 | 38726 ft | 468 kts | 51° |
| 2026-04-25 12:41 | 57.09270 | 12.87329 | 38716 ft | 468 kts | 51° |
| 2026-04-25 12:42 | 57.12822 | 12.97365 | 38715 ft | 468 kts | 51° |
| 2026-04-25 12:42 | 57.16370 | 13.07405 | 38712 ft | 468 kts | 51° |
| 2026-04-25 12:43 | 57.19909 | 13.17489 | 38719 ft | 469 kts | 52° |
| 2026-04-25 12:43 | 57.25211 | 13.32676 | 38698 ft | 470 kts | 52° |
| 2026-04-25 12:44 | 57.28756 | 13.42860 | 38700 ft | 471 kts | 52° |
| 2026-04-25 12:45 | 57.34043 | 13.58196 | 38698 ft | 471 kts | 52° |
| 2026-04-25 12:45 | 57.39317 | 13.73575 | 38697 ft | 471 kts | 52° |
| 2026-04-25 12:46 | 57.42824 | 13.83851 | 38691 ft | 471 kts | 52° |
| 2026-04-25 12:46 | 57.46349 | 13.94225 | 38690 ft | 474 kts | 53° |
| 2026-04-25 12:47 | 57.49863 | 14.04612 | 38698 ft | 476 kts | 53° |
| 2026-04-25 12:47 | 57.53384 | 14.15060 | 38681 ft | 476 kts | 53° |
| 2026-04-25 12:48 | 57.56891 | 14.25512 | 38685 ft | 476 kts | 53° |
| 2026-04-25 12:48 | 57.60394 | 14.35995 | 38682 ft | 476 kts | 53° |
| 2026-04-25 12:49 | 57.63885 | 14.46501 | 38682 ft | 476 kts | 53° |
| 2026-04-25 12:49 | 57.67368 | 14.57035 | 38675 ft | 477 kts | 53° |
| 2026-04-25 12:50 | 57.70845 | 14.67583 | 38694 ft | 477 kts | 53° |
| 2026-04-25 12:50 | 57.74337 | 14.78225 | 38664 ft | 481 kts | 54° |
| 2026-04-25 12:51 | 57.77834 | 14.88932 | 38659 ft | 482 kts | 54° |
| 2026-04-25 12:51 | 57.81324 | 14.99654 | 38658 ft | 482 kts | 54° |
| 2026-04-25 12:52 | 57.84804 | 15.10402 | 38661 ft | 482 kts | 54° |
| 2026-04-25 12:52 | 57.88276 | 15.21181 | 38662 ft | 482 kts | 54° |
| 2026-04-25 12:53 | 57.91743 | 15.31973 | 38644 ft | 482 kts | 54° |
| 2026-04-25 12:53 | 57.95201 | 15.42791 | 38637 ft | 482 kts | 54° |
| 2026-04-25 12:54 | 57.98644 | 15.53665 | 38642 ft | 484 kts | 55° |
| 2026-04-25 12:54 | 58.02092 | 15.64588 | 38640 ft | 485 kts | 55° |
| 2026-04-25 12:55 | 58.04982 | 15.73742 | 38635 ft | 485 kts | 55° |
| 2026-04-25 12:55 | 58.09003 | 15.86550 | 38635 ft | 485 kts | 55° |
| 2026-04-25 12:56 | 58.10722 | 15.92055 | 38414 ft | 488 kts | 55° |
| 2026-04-25 12:56 | 58.12444 | 15.97585 | 38039 ft | 487 kts | 55° |
| 2026-04-25 12:56 | 58.14158 | 16.03111 | 37637 ft | 487 kts | 55° |
| 2026-04-25 12:56 | 58.15876 | 16.08653 | 37308 ft | 488 kts | 55° |
| 2026-04-25 12:57 | 58.17592 | 16.14189 | 37043 ft | 488 kts | 55° |
| 2026-04-25 12:57 | 58.19312 | 16.19749 | 36795 ft | 489 kts | 55° |
| 2026-04-25 12:57 | 58.21025 | 16.25307 | 36564 ft | 489 kts | 55° |
| 2026-04-25 12:57 | 58.22744 | 16.30904 | 36299 ft | 492 kts | 55° |
| 2026-04-25 12:58 | 58.24466 | 16.36531 | 36050 ft | 493 kts | 55° |
| 2026-04-25 12:58 | 58.26184 | 16.42160 | 35848 ft | 493 kts | 55° |
| 2026-04-25 12:58 | 58.27935 | 16.47755 | 35606 ft | 491 kts | 52° |
| 2026-04-25 12:58 | 58.29930 | 16.52984 | 35367 ft | 488 kts | 49° |
| 2026-04-25 12:59 | 58.31959 | 16.58159 | 35109 ft | 488 kts | 49° |
| 2026-04-25 12:59 | 58.33987 | 16.63340 | 34880 ft | 488 kts | 49° |
| 2026-04-25 12:59 | 58.36016 | 16.68536 | 34653 ft | 488 kts | 49° |
| 2026-04-25 12:59 | 58.38045 | 16.73748 | 34247 ft | 489 kts | 49° |
| 2026-04-25 13:00 | 58.40063 | 16.78948 | 33792 ft | 489 kts | 49° |
| 2026-04-25 13:00 | 58.40745 | 16.80706 | 33642 ft | 489 kts | 49° |
| 2026-04-25 13:00 | 58.44105 | 16.89371 | 32742 ft | 490 kts | 49° |
| 2026-04-25 13:00 | 58.46134 | 16.94620 | 32096 ft | 491 kts | 49° |
| 2026-04-25 13:01 | 58.48159 | 16.99875 | 31523 ft | 492 kts | 49° |
| 2026-04-25 13:01 | 58.50181 | 17.05144 | 30910 ft | 491 kts | 49° |
| 2026-04-25 13:01 | 58.52200 | 17.10418 | 30298 ft | 491 kts | 49° |
| 2026-04-25 13:01 | 58.54218 | 17.15694 | 29708 ft | 491 kts | 49° |
| 2026-04-25 13:02 | 58.56253 | 17.21032 | 28983 ft | 486 kts | 49° |
| 2026-04-25 13:02 | 58.58228 | 17.26229 | 28144 ft | 480 kts | 49° |
| 2026-04-25 13:02 | 58.60179 | 17.31372 | 27318 ft | 475 kts | 49° |
| 2026-04-25 13:02 | 58.62111 | 17.36476 | 26529 ft | 470 kts | 49° |
| 2026-04-25 13:03 | 58.64016 | 17.41520 | 25758 ft | 465 kts | 49° |
| 2026-04-25 13:03 | 58.65908 | 17.46530 | 24997 ft | 461 kts | 49° |
| 2026-04-25 13:03 | 58.67779 | 17.51491 | 24266 ft | 457 kts | 48° |
| 2026-04-25 13:03 | 58.69631 | 17.56410 | 23596 ft | 452 kts | 49° |
| 2026-04-25 13:04 | 58.71464 | 17.61290 | 22830 ft | 447 kts | 49° |
| 2026-04-25 13:04 | 58.73274 | 17.66116 | 21964 ft | 443 kts | 48° |
| 2026-04-25 13:04 | 58.75293 | 17.70474 | 21117 ft | 428 kts | 33° |
| 2026-04-25 13:04 | 58.77774 | 17.73354 | 20317 ft | 409 kts | 14° |
| 2026-04-25 13:05 | 58.80467 | 17.74510 | 19532 ft | 389 kts | 355° |
| 2026-04-25 13:05 | 58.83087 | 17.73916 | 18770 ft | 373 kts | 339° |
| 2026-04-25 13:05 | 58.85564 | 17.72551 | 18021 ft | 369 kts | 338° |
| 2026-04-25 13:05 | 58.88022 | 17.71143 | 17184 ft | 367 kts | 338° |
| 2026-04-25 13:06 | 58.90461 | 17.69728 | 16346 ft | 367 kts | 339° |
| 2026-04-25 13:06 | 58.92991 | 17.68840 | 15523 ft | 373 kts | 349° |
| 2026-04-25 13:06 | 58.95608 | 17.68946 | 14610 ft | 382 kts | 1° |
| 2026-04-25 13:06 | 58.98239 | 17.69953 | 13747 ft | 387 kts | 7° |
| 2026-04-25 13:07 | 59.00870 | 17.71052 | 12793 ft | 386 kts | 7° |
| 2026-04-25 13:07 | 59.03504 | 17.72131 | 11669 ft | 374 kts | 7° |
| 2026-04-25 13:07 | 59.06002 | 17.73140 | 10612 ft | 359 kts | 7° |
| 2026-04-25 13:07 | 59.08395 | 17.74100 | 9585 ft | 344 kts | 7° |
| 2026-04-25 13:08 | 59.10696 | 17.75022 | 8495 ft | 332 kts | 7° |
| 2026-04-25 13:08 | 59.12917 | 17.75913 | 7424 ft | 320 kts | 8° |
| 2026-04-25 13:08 | 59.15064 | 17.76774 | 6379 ft | 310 kts | 8° |
| 2026-04-25 13:08 | 59.17144 | 17.77612 | 5331 ft | 302 kts | 9° |
| 2026-04-25 13:09 | 59.19171 | 17.78429 | 4400 ft | 291 kts | 9° |
| 2026-04-25 13:09 | 59.21074 | 17.79204 | 4067 ft | 264 kts | 9° |
| 2026-04-25 13:09 | 59.22772 | 17.79903 | 3944 ft | 236 kts | 9° |
| 2026-04-25 13:09 | 59.24307 | 17.80534 | 3935 ft | 215 kts | 8° |
| 2026-04-25 13:10 | 59.25677 | 17.81420 | 3946 ft | 201 kts | 18° |
| 2026-04-25 13:10 | 59.26973 | 17.82202 | 3946 ft | 191 kts | 9° |
| 2026-04-25 13:10 | 59.28276 | 17.82737 | 3948 ft | 191 kts | 7° |
| 2026-04-25 13:10 | 59.29581 | 17.83217 | 3948 ft | 192 kts | 7° |
| 2026-04-25 13:11 | 59.30895 | 17.83687 | 3947 ft | 188 kts | 7° |
| 2026-04-25 13:11 | 59.32135 | 17.84131 | 3950 ft | 178 kts | 6° |
| 2026-04-25 13:11 | 59.33360 | 17.84566 | 3949 ft | 179 kts | 7° |
| 2026-04-25 13:11 | 59.34593 | 17.85004 | 3949 ft | 180 kts | 7° |
| 2026-04-25 13:12 | 59.35830 | 17.85444 | 3947 ft | 181 kts | 7° |
| 2026-04-25 13:12 | 59.36669 | 17.85743 | 3949 ft | 179 kts | 7° |
| 2026-04-25 13:12 | 59.38195 | 17.86290 | 3947 ft | 161 kts | 7° |
| 2026-04-25 13:12 | 59.38572 | 17.86425 | 3951 ft | 159 kts | 6° |
| 2026-04-25 13:13 | 59.40008 | 17.86936 | 3947 ft | 159 kts | 7° |
| 2026-04-25 13:13 | 59.41111 | 17.87329 | 3945 ft | 160 kts | 7° |
| 2026-04-25 13:13 | 59.42213 | 17.87722 | 3950 ft | 161 kts | 7° |
| 2026-04-25 13:13 | 59.43309 | 17.88115 | 3947 ft | 160 kts | 7° |
| 2026-04-25 13:14 | 59.44408 | 17.88509 | 3858 ft | 160 kts | 7° |
| 2026-04-25 13:14 | 59.45495 | 17.88898 | 3688 ft | 158 kts | 7° |
| 2026-04-25 13:14 | 59.46574 | 17.89285 | 3487 ft | 157 kts | 7° |
| 2026-04-25 13:14 | 59.47605 | 17.89656 | 3269 ft | 143 kts | 7° |
| 2026-04-25 13:15 | 59.48528 | 17.89989 | 3085 ft | 128 kts | 7° |
| 2026-04-25 13:15 | 59.49364 | 17.90289 | 2917 ft | 117 kts | 7° |
| 2026-04-25 13:15 | 59.50134 | 17.90565 | 2762 ft | 110 kts | 7° |
| 2026-04-25 13:15 | 59.50885 | 17.90834 | 2629 ft | 109 kts | 7° |
| 2026-04-25 13:16 | 59.51630 | 17.91102 | 2480 ft | 108 kts | 7° |
| 2026-04-25 13:16 | 59.52369 | 17.91367 | 2330 ft | 108 kts | 7° |
| 2026-04-25 13:16 | 59.53116 | 17.91636 | 2181 ft | 109 kts | 8° |
| 2026-04-25 13:16 | 59.53848 | 17.91899 | 2030 ft | 108 kts | 8° |
| 2026-04-25 13:17 | 59.54585 | 17.92165 | 1879 ft | 107 kts | 7° |
| 2026-04-25 13:17 | 59.55309 | 17.92427 | 1729 ft | 106 kts | 7° |
| 2026-04-25 13:17 | 59.56040 | 17.92692 | 1560 ft | 108 kts | 7° |
| 2026-04-25 13:17 | 59.56769 | 17.92957 | 1397 ft | 106 kts | 7° |
| 2026-04-25 13:18 | 59.57498 | 17.93217 | 1244 ft | 105 kts | 7° |
| 2026-04-25 13:18 | 59.58221 | 17.93471 | 1121 ft | 105 kts | 7° |
| 2026-04-25 13:18 | 59.58954 | 17.93732 | 954 ft | 109 kts | 7° |
| 2026-04-25 13:18 | 59.59696 | 17.94000 | 817 ft | 107 kts | 8° |
| 2026-04-25 13:19 | 59.60415 | 17.94257 | 639 ft | 105 kts | 8° |
| 2026-04-25 13:19 | 59.61148 | 17.94527 | 494 ft | 106 kts | 8° |
| 2026-04-25 13:19 | 59.61869 | 17.94792 | 361 ft | 107 kts | 7° |
| 2026-04-25 13:19 | 59.62349 | 17.94969 | 246 ft | 105 kts | 8° |
| 2026-04-25 13:20 | 59.63284 | 17.95321 | 147 ft | 100 kts | 5° |
| 2026-04-25 13:20 | 59.64153 | 17.95604 | 632 ft | 149 kts | 6° |
| 2026-04-25 13:20 | 59.65225 | 17.96393 | 1421 ft | 184 kts | 32° |
| 2026-04-25 13:20 | 59.66010 | 17.98757 | 2130 ft | 236 kts | 66° |
| 2026-04-25 13:21 | 59.66073 | 18.02236 | 3118 ft | 262 kts | 95° |
| 2026-04-25 13:21 | 59.65679 | 18.05472 | 3859 ft | 222 kts | 97° |
| 2026-04-25 13:21 | 59.65262 | 18.08271 | 3987 ft | 213 kts | 101° |
| 2026-04-25 13:21 | 59.64382 | 18.10851 | 4011 ft | 241 kts | 135° |
| 2026-04-25 13:22 | 59.62842 | 18.12250 | 4001 ft | 250 kts | 171° |
| 2026-04-25 13:22 | 59.61101 | 18.12233 | 4005 ft | 251 kts | 186° |
| 2026-04-25 13:22 | 59.59360 | 18.11886 | 3996 ft | 252 kts | 188° |
| 2026-04-25 13:23 | 59.55878 | 18.11106 | 3998 ft | 252 kts | 188° |
| 2026-04-25 13:23 | 59.54141 | 18.10702 | 4003 ft | 251 kts | 188° |
| 2026-04-25 13:23 | 59.52407 | 18.10296 | 3991 ft | 251 kts | 188° |
| 2026-04-25 13:23 | 59.50671 | 18.09891 | 3972 ft | 251 kts | 188° |
| 2026-04-25 13:24 | 59.48937 | 18.09486 | 3963 ft | 250 kts | 188° |
| 2026-04-25 13:24 | 59.47214 | 18.09109 | 3967 ft | 249 kts | 188° |
| 2026-04-25 13:24 | 59.45497 | 18.08740 | 3649 ft | 247 kts | 189° |
| 2026-04-25 13:24 | 59.43937 | 18.07552 | 3300 ft | 237 kts | 223° |
| 2026-04-25 13:25 | 59.42995 | 18.05080 | 2971 ft | 220 kts | 259° |
| 2026-04-25 13:25 | 59.42881 | 18.02226 | 2636 ft | 207 kts | 284° |
| 2026-04-25 13:25 | 59.43076 | 17.99444 | 2475 ft | 205 kts | 288° |
| 2026-04-25 13:25 | 59.43286 | 17.96726 | 2462 ft | 194 kts | 288° |
| 2026-04-25 13:26 | 59.43634 | 17.94370 | 2461 ft | 166 kts | 314° |
| 2026-04-25 13:26 | 59.44489 | 17.93026 | 2483 ft | 156 kts | 336° |
| 2026-04-25 13:26 | 59.45461 | 17.92062 | 2535 ft | 157 kts | 339° |
| 2026-04-25 13:26 | 59.46465 | 17.91130 | 2529 ft | 158 kts | 339° |
| 2026-04-25 13:27 | 59.47465 | 17.90228 | 2526 ft | 157 kts | 341° |
| 2026-04-25 13:27 | 59.48522 | 17.89982 | 2517 ft | 154 kts | 7° |
| 2026-04-25 13:27 | 59.49550 | 17.90353 | 2541 ft | 143 kts | 9° |
| 2026-04-25 13:27 | 59.50496 | 17.90694 | 2523 ft | 136 kts | 8° |
| 2026-04-25 13:28 | 59.51423 | 17.91028 | 2453 ft | 134 kts | 8° |
| 2026-04-25 13:28 | 59.51719 | 17.91134 | 2410 ft | 133 kts | 8° |
| 2026-04-25 13:28 | 59.53271 | 17.91692 | 2153 ft | 136 kts | 9° |
| 2026-04-25 13:28 | 59.54198 | 17.92026 | 1971 ft | 136 kts | 8° |
| 2026-04-25 13:29 | 59.55123 | 17.92360 | 1787 ft | 134 kts | 8° |
| 2026-04-25 13:29 | 59.56029 | 17.92687 | 1597 ft | 128 kts | 8° |
| 2026-04-25 13:29 | 59.56865 | 17.92989 | 1428 ft | 116 kts | 8° |
| 2026-04-25 13:30 | 59.58370 | 17.93536 | 1065 ft | 107 kts | 8° |
| 2026-04-25 13:30 | 59.59094 | 17.93798 | 881 ft | 105 kts | 9° |
| 2026-04-25 13:30 | 59.59819 | 17.94052 | 757 ft | 104 kts | 7° |
| 2026-04-25 13:31 | 59.61258 | 17.94577 | 486 ft | 108 kts | 9° |
| 2026-04-25 13:31 | 59.61978 | 17.94838 | 330 ft | 106 kts | 8° |
| 2026-04-25 13:31 | 59.62704 | 17.95107 | 168 ft | 106 kts | 8° |
| 2026-04-25 13:31 | 59.63360 | 17.95340 | 123 ft | 78 kts | 11° |
| 2026-04-25 13:32 | 59.63746 | 17.95481 | 116 ft | 43 kts | 10° |
| 2026-04-25 13:32 | 59.64005 | 17.95563 | 112 ft | 28 kts | 1° |
| 2026-04-25 13:32 | 59.64164 | 17.95509 | 110 ft | 21 kts | 340° |
| 2026-04-25 13:32 | 59.64307 | 17.95402 | 107 ft | 23 kts | 341° |
| 2026-04-25 13:33 | 59.64457 | 17.95329 | 106 ft | 22 kts | 4° |
| 2026-04-25 13:33 | 59.64615 | 17.95385 | 105 ft | 23 kts | 11° |
| 2026-04-25 13:33 | 59.64774 | 17.95445 | 107 ft | 23 kts | 10° |
| 2026-04-25 13:33 | 59.64864 | 17.95455 | 106 ft | 16 kts | 334° |
| 2026-04-25 13:34 | 59.64810 | 17.95264 | 104 ft | 15 kts | 204° |
| 2026-04-25 13:34 | 59.64741 | 17.95077 | 102 ft | 19 kts | 239° |
| 2026-04-25 13:34 | 59.64680 | 17.94911 | 102 ft | 8 kts | 198° |
| 2026-04-25 13:34 | 59.64631 | 17.94972 | 103 ft | 10 kts | 147° |
| 2026-04-25 13:35 | 59.64580 | 17.95035 | 103 ft | 6 kts | 148° |
| 2026-04-25 13:35 | 59.64575 | 17.95041 | 103 ft | 0 kts | 148° |